New Auburn, Wisconsin
Current Conditions -  °F | °C
As of 10:55 AM on Saturday 25 Oct 2014 (Local Time) from KY23 Reporting Station
Clear Clear  
Wind Chill: 55°   Ceiling: Unl
Heat Index: 55°   Visibility: 10mi
Dew Point: 35°   Wind: 8mph
Humidity: 47%   Direction: 300°WNW
Pressure: 29.97"   Gusts: 18mph
Location:  45.2°N, 91.56°W
Report Text: KY23 251555Z AUTO 30007G16KT 270V340 10SM CLR 13/01 A2997 RMK AO2 T01250014
Loading
Personal Weather Stations






























Interactive Weather Map
Tropical Storm Tracking
New forecast layout! Learn more

10-Day Weather Forecast

Advertisements
Track Severe Weather on mobile